sensor_id;sensor_type;location;lat;lon;timestamp;P1;durP1;ratioP1;P2;durP2;ratioP2
35380;SDS011;21486;51.916;8.378;2023-09-18T00:33:03;13.57;;;6.63;;
35380;SDS011;21486;51.916;8.378;2023-09-18T00:35:29;11.52;;;6.38;;
35380;SDS011;21486;51.916;8.378;2023-09-18T00:37:54;12.50;;;6.37;;
35380;SDS011;21486;51.916;8.378;2023-09-18T00:40:21;10.55;;;6.68;;
35380;SDS011;21486;51.916;8.378;2023-09-18T00:42:46;12.20;;;5.47;;
35380;SDS011;21486;51.916;8.378;2023-09-18T00:45:12;13.20;;;6.35;;
35380;SDS011;21486;51.916;8.378;2023-09-18T00:47:38;10.93;;;6.22;;
35380;SDS011;21486;51.916;8.378;2023-09-18T00:50:04;11.90;;;5.43;;
35380;SDS011;21486;51.916;8.378;2023-09-18T00:52:34;16.83;;;6.07;;
35380;SDS011;21486;51.916;8.378;2023-09-18T00:55:00;11.73;;;5.77;;
35380;SDS011;21486;51.916;8.378;2023-09-18T00:57:26;11.00;;;5.97;;
35380;SDS011;21486;51.916;8.378;2023-09-18T00:59:53;11.65;;;5.32;;
35380;SDS011;21486;51.916;8.378;2023-09-18T01:02:18;11.57;;;5.50;;
35380;SDS011;21486;51.916;8.378;2023-09-18T01:04:45;12.40;;;6.03;;
35380;SDS011;21486;51.916;8.378;2023-09-18T01:07:13;12.43;;;5.67;;
35380;SDS011;21486;51.916;8.378;2023-09-18T01:09:38;9.63;;;5.27;;
35380;SDS011;21486;51.916;8.378;2023-09-18T01:12:06;11.65;;;5.43;;
35380;SDS011;21486;51.916;8.378;2023-09-18T01:17:35;11.70;;;5.57;;
35380;SDS011;21486;51.916;8.378;2023-09-18T01:20:05;11.23;;;5.75;;
35380;SDS011;21486;51.916;8.378;2023-09-18T01:22:34;12.20;;;5.53;;
35380;SDS011;21486;51.916;8.378;2023-09-18T01:24:59;11.60;;;6.03;;
35380;SDS011;21486;51.916;8.378;2023-09-18T01:27:25;12.25;;;5.72;;
35380;SDS011;21486;51.916;8.378;2023-09-18T01:29:51;9.73;;;5.53;;
35380;SDS011;21486;51.916;8.378;2023-09-18T01:32:18;8.03;;;5.10;;
35380;SDS011;21486;51.916;8.378;2023-09-18T01:34:48;11.25;;;5.80;;
35380;SDS011;21486;51.916;8.378;2023-09-18T01:37:16;12.82;;;5.55;;
35380;SDS011;21486;51.916;8.378;2023-09-18T01:39:46;9.07;;;5.35;;
35380;SDS011;21486;51.916;8.378;2023-09-18T01:42:14;11.40;;;5.22;;
35380;SDS011;21486;51.916;8.378;2023-09-18T01:44:40;11.55;;;5.85;;
35380;SDS011;21486;51.916;8.378;2023-09-18T01:47:17;12.27;;;5.68;;
35380;SDS011;21486;51.916;8.378;2023-09-18T01:49:45;12.25;;;5.57;;
35380;SDS011;21486;51.916;8.378;2023-09-18T01:52:20;12.23;;;6.07;;
35380;SDS011;21486;51.916;8.378;2023-09-18T01:54:47;12.15;;;5.85;;
35380;SDS011;21486;51.916;8.378;2023-09-18T01:57:21;12.52;;;5.68;;
35380;SDS011;21486;51.916;8.378;2023-09-18T01:59:47;9.25;;;5.15;;
35380;SDS011;21486;51.916;8.378;2023-09-18T02:02:12;11.52;;;5.53;;
35380;SDS011;21486;51.916;8.378;2023-09-18T02:04:38;9.07;;;5.32;;
35380;SDS011;21486;51.916;8.378;2023-09-18T02:07:05;11.43;;;5.63;;
35380;SDS011;21486;51.916;8.378;2023-09-18T02:09:31;9.73;;;5.37;;
35380;SDS011;21486;51.916;8.378;2023-09-18T02:11:57;10.53;;;5.23;;
35380;SDS011;21486;51.916;8.378;2023-09-18T02:14:31;9.60;;;5.00;;
35380;SDS011;21486;51.916;8.378;2023-09-18T02:16:57;8.98;;;4.97;;
35380;SDS011;21486;51.916;8.378;2023-09-18T02:19:23;11.93;;;5.43;;
35380;SDS011;21486;51.916;8.378;2023-09-18T02:21:52;10.35;;;5.18;;
35380;SDS011;21486;51.916;8.378;2023-09-18T02:24:21;11.27;;;5.32;;
35380;SDS011;21486;51.916;8.378;2023-09-18T02:26:46;10.38;;;5.13;;
35380;SDS011;21486;51.916;8.378;2023-09-18T02:29:33;11.57;;;5.07;;
35380;SDS011;21486;51.916;8.378;2023-09-18T02:31:58;10.60;;;5.38;;
35380;SDS011;21486;51.916;8.378;2023-09-18T02:34:24;12.65;;;5.13;;
35380;SDS011;21486;51.916;8.378;2023-09-18T02:36:50;11.97;;;4.90;;
35380;SDS011;21486;51.916;8.378;2023-09-18T02:39:16;11.80;;;5.25;;
35380;SDS011;21486;51.916;8.378;2023-09-18T02:41:41;9.80;;;4.90;;
35380;SDS011;21486;51.916;8.378;2023-09-18T02:44:07;14.63;;;5.07;;
35380;SDS011;21486;51.916;8.378;2023-09-18T02:46:33;8.23;;;5.13;;
35380;SDS011;21486;51.916;8.378;2023-09-18T02:48:59;9.07;;;4.80;;
35380;SDS011;21486;51.916;8.378;2023-09-18T02:51:25;8.68;;;4.60;;
35380;SDS011;21486;51.916;8.378;2023-09-18T02:53:51;12.85;;;5.10;;
35380;SDS011;21486;51.916;8.378;2023-09-18T02:56:16;9.90;;;5.30;;
35380;SDS011;21486;51.916;8.378;2023-09-18T02:58:42;6.93;;;4.23;;
35380;SDS011;21486;51.916;8.378;2023-09-18T03:01:08;7.28;;;4.28;;
35380;SDS011;21486;51.916;8.378;2023-09-18T03:03:34;14.60;;;4.65;;
35380;SDS011;21486;51.916;8.378;2023-09-18T03:06:03;9.17;;;4.57;;
35380;SDS011;21486;51.916;8.378;2023-09-18T03:08:30;8.32;;;4.22;;
35380;SDS011;21486;51.916;8.378;2023-09-18T03:10:56;8.10;;;3.95;;
35380;SDS011;21486;51.916;8.378;2023-09-18T03:13:22;7.53;;;4.25;;
35380;SDS011;21486;51.916;8.378;2023-09-18T03:15:48;9.68;;;4.38;;
35380;SDS011;21486;51.916;8.378;2023-09-18T03:18:22;10.40;;;4.75;;
35380;SDS011;21486;51.916;8.378;2023-09-18T03:20:48;7.03;;;4.60;;
35380;SDS011;21486;51.916;8.378;2023-09-18T03:23:21;10.13;;;4.28;;
35380;SDS011;21486;51.916;8.378;2023-09-18T03:25:47;9.90;;;4.43;;
35380;SDS011;21486;51.916;8.378;2023-09-18T03:28:12;8.50;;;4.65;;
35380;SDS011;21486;51.916;8.378;2023-09-18T03:30:38;7.40;;;4.40;;
35380;SDS011;21486;51.916;8.378;2023-09-18T03:33:04;10.68;;;4.60;;
35380;SDS011;21486;51.916;8.378;2023-09-18T03:35:30;10.80;;;4.50;;
35380;SDS011;21486;51.916;8.378;2023-09-18T03:37:57;8.98;;;4.75;;
35380;SDS011;21486;51.916;8.378;2023-09-18T03:40:43;9.80;;;4.15;;
35380;SDS011;21486;51.916;8.378;2023-09-18T03:43:28;8.27;;;4.32;;
35380;SDS011;21486;51.916;8.378;2023-09-18T03:45:53;8.57;;;4.50;;
35380;SDS011;21486;51.916;8.378;2023-09-18T03:48:19;10.63;;;4.37;;
35380;SDS011;21486;51.916;8.378;2023-09-18T03:50:51;10.30;;;4.60;;
35380;SDS011;21486;51.916;8.378;2023-09-18T03:53:17;8.88;;;4.72;;
35380;SDS011;21486;51.916;8.378;2023-09-18T03:55:43;10.90;;;4.97;;
35380;SDS011;21486;51.916;8.378;2023-09-18T03:58:08;9.00;;;4.80;;
35380;SDS011;21486;51.916;8.378;2023-09-18T04:00:35;8.88;;;4.72;;
35380;SDS011;21486;51.916;8.378;2023-09-18T04:03:01;11.75;;;4.38;;
35380;SDS011;21486;51.916;8.378;2023-09-18T04:05:26;12.27;;;4.57;;
35380;SDS011;21486;51.916;8.378;2023-09-18T04:08:09;11.95;;;4.43;;
35380;SDS011;21486;51.916;8.378;2023-09-18T04:10:44;7.90;;;4.30;;
35380;SDS011;21486;51.916;8.378;2023-09-18T04:13:10;9.90;;;4.80;;
35380;SDS011;21486;51.916;8.378;2023-09-18T04:15:36;11.20;;;5.30;;
35380;SDS011;21486;51.916;8.378;2023-09-18T04:18:03;7.78;;;4.82;;
35380;SDS011;21486;51.916;8.378;2023-09-18T04:20:30;11.18;;;4.45;;
35380;SDS011;21486;51.916;8.378;2023-09-18T04:25:43;9.80;;;4.88;;
35380;SDS011;21486;51.916;8.378;2023-09-18T04:28:09;10.75;;;4.47;;
35380;SDS011;21486;51.916;8.378;2023-09-18T04:30:34;11.67;;;4.80;;
35380;SDS011;21486;51.916;8.378;2023-09-18T04:33:00;8.32;;;4.40;;
35380;SDS011;21486;51.916;8.378;2023-09-18T04:35:26;10.15;;;5.15;;
35380;SDS011;21486;51.916;8.378;2023-09-18T04:37:55;11.63;;;4.70;;
35380;SDS011;21486;51.916;8.378;2023-09-18T04:40:21;7.80;;;4.25;;
35380;SDS011;21486;51.916;8.378;2023-09-18T04:42:48;5.72;;;3.78;;
35380;SDS011;21486;51.916;8.378;2023-09-18T04:45:14;10.40;;;4.20;;
35380;SDS011;21486;51.916;8.378;2023-09-18T04:47:41;9.25;;;4.78;;
35380;SDS011;21486;51.916;8.378;2023-09-18T04:50:06;8.65;;;4.47;;
35380;SDS011;21486;51.916;8.378;2023-09-18T04:52:34;6.18;;;4.65;;
35380;SDS011;21486;51.916;8.378;2023-09-18T04:55:05;7.47;;;4.45;;
35380;SDS011;21486;51.916;8.378;2023-09-18T04:57:31;8.90;;;4.28;;
35380;SDS011;21486;51.916;8.378;2023-09-18T04:59:57;9.10;;;4.50;;
35380;SDS011;21486;51.916;8.378;2023-09-18T05:02:22;6.57;;;4.50;;
35380;SDS011;21486;51.916;8.378;2023-09-18T05:04:50;9.93;;;4.80;;
35380;SDS011;21486;51.916;8.378;2023-09-18T05:07:16;7.47;;;4.78;;
35380;SDS011;21486;51.916;8.378;2023-09-18T05:09:41;8.05;;;4.82;;
35380;SDS011;21486;51.916;8.378;2023-09-18T05:12:08;8.77;;;5.00;;
35380;SDS011;21486;51.916;8.378;2023-09-18T05:14:38;8.15;;;4.60;;
35380;SDS011;21486;51.916;8.378;2023-09-18T05:17:14;9.85;;;4.72;;
35380;SDS011;21486;51.916;8.378;2023-09-18T05:19:41;7.88;;;4.47;;
35380;SDS011;21486;51.916;8.378;2023-09-18T05:22:10;7.90;;;4.50;;
35380;SDS011;21486;51.916;8.378;2023-09-18T05:24:37;8.47;;;4.97;;
35380;SDS011;21486;51.916;8.378;2023-09-18T05:27:03;9.43;;;4.50;;
35380;SDS011;21486;51.916;8.378;2023-09-18T05:29:31;8.23;;;4.82;;
35380;SDS011;21486;51.916;8.378;2023-09-18T05:31:57;8.52;;;4.72;;
35380;SDS011;21486;51.916;8.378;2023-09-18T05:34:22;8.37;;;4.70;;
35380;SDS011;21486;51.916;8.378;2023-09-18T05:36:48;11.07;;;4.80;;
35380;SDS011;21486;51.916;8.378;2023-09-18T05:39:14;7.78;;;4.75;;
35380;SDS011;21486;51.916;8.378;2023-09-18T05:41:39;9.10;;;4.70;;
35380;SDS011;21486;51.916;8.378;2023-09-18T05:44:05;11.00;;;4.63;;
35380;SDS011;21486;51.916;8.378;2023-09-18T05:46:33;7.07;;;4.45;;
35380;SDS011;21486;51.916;8.378;2023-09-18T05:49:00;9.07;;;4.35;;
35380;SDS011;21486;51.916;8.378;2023-09-18T05:51:26;8.40;;;4.07;;
35380;SDS011;21486;51.916;8.378;2023-09-18T05:53:52;9.35;;;4.50;;
35380;SDS011;21486;51.916;8.378;2023-09-18T05:56:17;9.63;;;4.30;;
35380;SDS011;21486;51.916;8.378;2023-09-18T05:58:43;9.02;;;4.57;;
35380;SDS011;21486;51.916;8.378;2023-09-18T06:01:09;9.38;;;4.53;;
35380;SDS011;21486;51.916;8.378;2023-09-18T06:03:34;6.43;;;3.93;;
35380;SDS011;21486;51.916;8.378;2023-09-18T06:06:10;7.30;;;4.30;;
35380;SDS011;21486;51.916;8.378;2023-09-18T06:08:35;7.47;;;4.80;;
35380;SDS011;21486;51.916;8.378;2023-09-18T06:11:01;5.85;;;3.95;;
35380;SDS011;21486;51.916;8.378;2023-09-18T06:13:27;7.47;;;4.00;;
35380;SDS011;21486;51.916;8.378;2023-09-18T06:15:53;8.73;;;4.60;;
35380;SDS011;21486;51.916;8.378;2023-09-18T06:18:20;9.15;;;4.53;;
35380;SDS011;21486;51.916;8.378;2023-09-18T06:20:47;10.27;;;4.30;;
35380;SDS011;21486;51.916;8.378;2023-09-18T06:23:12;11.15;;;4.13;;
35380;SDS011;21486;51.916;8.378;2023-09-18T06:25:38;7.45;;;4.20;;
35380;SDS011;21486;51.916;8.378;2023-09-18T06:28:04;10.00;;;4.07;;
35380;SDS011;21486;51.916;8.378;2023-09-18T06:30:30;8.57;;;3.92;;
35380;SDS011;21486;51.916;8.378;2023-09-18T06:32:57;8.77;;;4.40;;
35380;SDS011;21486;51.916;8.378;2023-09-18T06:35:23;8.27;;;4.40;;
35380;SDS011;21486;51.916;8.378;2023-09-18T06:37:49;7.43;;;4.27;;
35380;SDS011;21486;51.916;8.378;2023-09-18T06:40:14;7.85;;;4.20;;
35380;SDS011;21486;51.916;8.378;2023-09-18T06:42:40;8.80;;;4.23;;
35380;SDS011;21486;51.916;8.378;2023-09-18T06:45:06;7.22;;;3.75;;
35380;SDS011;21486;51.916;8.378;2023-09-18T06:47:32;9.02;;;4.28;;
35380;SDS011;21486;51.916;8.378;2023-09-18T06:49:58;9.67;;;4.13;;
35380;SDS011;21486;51.916;8.378;2023-09-18T06:52:25;9.77;;;4.28;;
35380;SDS011;21486;51.916;8.378;2023-09-18T06:54:51;8.25;;;3.72;;
35380;SDS011;21486;51.916;8.378;2023-09-18T06:57:17;5.97;;;3.95;;
35380;SDS011;21486;51.916;8.378;2023-09-18T06:59:43;9.45;;;4.22;;
35380;SDS011;21486;51.916;8.378;2023-09-18T07:02:09;9.85;;;3.50;;
35380;SDS011;21486;51.916;8.378;2023-09-18T07:04:35;10.00;;;3.90;;
35380;SDS011;21486;51.916;8.378;2023-09-18T07:07:00;8.87;;;4.10;;
35380;SDS011;21486;51.916;8.378;2023-09-18T07:09:26;6.78;;;4.07;;
35380;SDS011;21486;51.916;8.378;2023-09-18T07:11:51;10.03;;;3.50;;
35380;SDS011;21486;51.916;8.378;2023-09-18T07:14:17;11.00;;;3.15;;
35380;SDS011;21486;51.916;8.378;2023-09-18T07:16:43;7.47;;;3.27;;
35380;SDS011;21486;51.916;8.378;2023-09-18T07:19:08;6.35;;;3.13;;
35380;SDS011;21486;51.916;8.378;2023-09-18T07:21:37;5.53;;;2.63;;
35380;SDS011;21486;51.916;8.378;2023-09-18T07:24:03;7.15;;;2.90;;
35380;SDS011;21486;51.916;8.378;2023-09-18T07:26:29;8.80;;;2.70;;
35380;SDS011;21486;51.916;8.378;2023-09-18T07:28:54;6.75;;;2.30;;
35380;SDS011;21486;51.916;8.378;2023-09-18T07:31:20;8.33;;;2.30;;
35380;SDS011;21486;51.916;8.378;2023-09-18T07:33:45;9.45;;;2.67;;
35380;SDS011;21486;51.916;8.378;2023-09-18T07:36:11;6.50;;;2.30;;
35380;SDS011;21486;51.916;8.378;2023-09-18T07:38:37;5.18;;;1.70;;
35380;SDS011;21486;51.916;8.378;2023-09-18T07:41:02;7.83;;;2.40;;
35380;SDS011;21486;51.916;8.378;2023-09-18T07:43:28;12.13;;;2.50;;
35380;SDS011;21486;51.916;8.378;2023-09-18T07:45:54;5.07;;;2.40;;
35380;SDS011;21486;51.916;8.378;2023-09-18T07:48:19;6.18;;;2.05;;
35380;SDS011;21486;51.916;8.378;2023-09-18T07:50:46;6.85;;;2.22;;
35380;SDS011;21486;51.916;8.378;2023-09-18T07:53:14;14.73;;;2.33;;
35380;SDS011;21486;51.916;8.378;2023-09-18T07:55:40;7.83;;;2.00;;
35380;SDS011;21486;51.916;8.378;2023-09-18T07:58:06;9.43;;;2.00;;
35380;SDS011;21486;51.916;8.378;2023-09-18T08:00:31;4.27;;;1.80;;
35380;SDS011;21486;51.916;8.378;2023-09-18T08:02:58;6.53;;;1.90;;
35380;SDS011;21486;51.916;8.378;2023-09-18T08:05:26;7.50;;;1.97;;
35380;SDS011;21486;51.916;8.378;2023-09-18T08:07:55;6.05;;;2.00;;
35380;SDS011;21486;51.916;8.378;2023-09-18T08:10:21;6.38;;;2.08;;
35380;SDS011;21486;51.916;8.378;2023-09-18T08:12:47;5.75;;;2.10;;
35380;SDS011;21486;51.916;8.378;2023-09-18T08:15:15;5.87;;;1.73;;
35380;SDS011;21486;51.916;8.378;2023-09-18T08:17:40;7.93;;;1.97;;
35380;SDS011;21486;51.916;8.378;2023-09-18T08:20:07;5.60;;;2.00;;
35380;SDS011;21486;51.916;8.378;2023-09-18T08:22:38;6.38;;;2.00;;
35380;SDS011;21486;51.916;8.378;2023-09-18T08:25:05;7.88;;;2.22;;
35380;SDS011;21486;51.916;8.378;2023-09-18T08:27:33;6.28;;;1.88;;
35380;SDS011;21486;51.916;8.378;2023-09-18T08:29:58;5.75;;;2.15;;
35380;SDS011;21486;51.916;8.378;2023-09-18T08:32:24;8.70;;;2.50;;
35380;SDS011;21486;51.916;8.378;2023-09-18T08:34:49;4.97;;;2.00;;
35380;SDS011;21486;51.916;8.378;2023-09-18T08:37:15;6.83;;;1.83;;
35380;SDS011;21486;51.916;8.378;2023-09-18T08:39:40;5.70;;;1.50;;
35380;SDS011;21486;51.916;8.378;2023-09-18T08:42:07;7.77;;;1.70;;
35380;SDS011;21486;51.916;8.378;2023-09-18T08:44:34;8.15;;;2.10;;
35380;SDS011;21486;51.916;8.378;2023-09-18T08:47:04;4.93;;;1.65;;
35380;SDS011;21486;51.916;8.378;2023-09-18T08:49:31;5.47;;;1.83;;
35380;SDS011;21486;51.916;8.378;2023-09-18T08:51:57;11.73;;;1.88;;
35380;SDS011;21486;51.916;8.378;2023-09-18T08:54:24;9.50;;;1.83;;
35380;SDS011;21486;51.916;8.378;2023-09-18T08:56:53;6.40;;;1.77;;
35380;SDS011;21486;51.916;8.378;2023-09-18T08:59:20;7.22;;;1.75;;
35380;SDS011;21486;51.916;8.378;2023-09-18T09:01:49;7.30;;;1.80;;
35380;SDS011;21486;51.916;8.378;2023-09-18T09:04:15;4.47;;;1.67;;
35380;SDS011;21486;51.916;8.378;2023-09-18T09:06:40;7.47;;;1.70;;
35380;SDS011;21486;51.916;8.378;2023-09-18T09:09:06;5.53;;;2.35;;
35380;SDS011;21486;51.916;8.378;2023-09-18T09:11:33;4.28;;;1.80;;
35380;SDS011;21486;51.916;8.378;2023-09-18T09:14:12;4.40;;;1.58;;
35380;SDS011;21486;51.916;8.378;2023-09-18T09:16:46;4.22;;;1.38;;
35380;SDS011;21486;51.916;8.378;2023-09-18T09:19:15;9.18;;;1.75;;
35380;SDS011;21486;51.916;8.378;2023-09-18T09:21:42;5.25;;;1.60;;
35380;SDS011;21486;51.916;8.378;2023-09-18T09:24:09;4.95;;;1.67;;
35380;SDS011;21486;51.916;8.378;2023-09-18T09:26:43;6.97;;;2.00;;
35380;SDS011;21486;51.916;8.378;2023-09-18T09:29:15;8.23;;;1.70;;
35380;SDS011;21486;51.916;8.378;2023-09-18T09:31:43;5.50;;;1.50;;
35380;SDS011;21486;51.916;8.378;2023-09-18T09:34:10;7.45;;;1.83;;
35380;SDS011;21486;51.916;8.378;2023-09-18T09:36:35;6.67;;;2.10;;
35380;SDS011;21486;51.916;8.378;2023-09-18T09:39:01;4.07;;;1.63;;
35380;SDS011;21486;51.916;8.378;2023-09-18T09:41:30;6.40;;;1.50;;
35380;SDS011;21486;51.916;8.378;2023-09-18T09:43:57;5.68;;;1.67;;
35380;SDS011;21486;51.916;8.378;2023-09-18T09:46:23;5.38;;;1.60;;
35380;SDS011;21486;51.916;8.378;2023-09-18T09:48:57;4.18;;;1.73;;
35380;SDS011;21486;51.916;8.378;2023-09-18T09:51:24;6.77;;;1.57;;
35380;SDS011;21486;51.916;8.378;2023-09-18T09:53:49;6.70;;;1.87;;
35380;SDS011;21486;51.916;8.378;2023-09-18T09:56:16;7.13;;;1.40;;
35380;SDS011;21486;51.916;8.378;2023-09-18T09:58:59;4.70;;;1.77;;
35380;SDS011;21486;51.916;8.378;2023-09-18T10:01:33;4.95;;;1.98;;
35380;SDS011;21486;51.916;8.378;2023-09-18T10:04:03;6.40;;;1.77;;
35380;SDS011;21486;51.916;8.378;2023-09-18T10:06:33;7.65;;;1.90;;
35380;SDS011;21486;51.916;8.378;2023-09-18T10:09:02;6.55;;;2.10;;
35380;SDS011;21486;51.916;8.378;2023-09-18T10:11:30;4.18;;;1.80;;
35380;SDS011;21486;51.916;8.378;2023-09-18T10:14:07;4.50;;;1.40;;
35380;SDS011;21486;51.916;8.378;2023-09-18T10:16:37;5.50;;;1.50;;
35380;SDS011;21486;51.916;8.378;2023-09-18T10:21:35;5.80;;;1.77;;
35380;SDS011;21486;51.916;8.378;2023-09-18T10:24:20;7.47;;;2.03;;
35380;SDS011;21486;51.916;8.378;2023-09-18T10:26:51;5.93;;;1.70;;
35380;SDS011;21486;51.916;8.378;2023-09-18T10:29:23;5.80;;;1.60;;
35380;SDS011;21486;51.916;8.378;2023-09-18T10:31:53;6.07;;;1.40;;
35380;SDS011;21486;51.916;8.378;2023-09-18T10:34:19;3.72;;;1.42;;
35380;SDS011;21486;51.916;8.378;2023-09-18T10:36:47;6.90;;;1.60;;
35380;SDS011;21486;51.916;8.378;2023-09-18T10:39:14;6.63;;;1.67;;
35380;SDS011;21486;51.916;8.378;2023-09-18T10:41:48;3.95;;;1.75;;
35380;SDS011;21486;51.916;8.378;2023-09-18T10:44:22;3.40;;;1.63;;
35380;SDS011;21486;51.916;8.378;2023-09-18T10:46:49;5.80;;;1.60;;
35380;SDS011;21486;51.916;8.378;2023-09-18T10:49:17;4.50;;;1.30;;
35380;SDS011;21486;51.916;8.378;2023-09-18T10:51:44;5.65;;;1.30;;
35380;SDS011;21486;51.916;8.378;2023-09-18T10:54:15;5.70;;;1.45;;
35380;SDS011;21486;51.916;8.378;2023-09-18T10:56:44;5.55;;;1.17;;
35380;SDS011;21486;51.916;8.378;2023-09-18T10:59:11;3.85;;;1.50;;
35380;SDS011;21486;51.916;8.378;2023-09-18T11:01:37;4.50;;;1.20;;
35380;SDS011;21486;51.916;8.378;2023-09-18T11:04:03;4.20;;;1.40;;
35380;SDS011;21486;51.916;8.378;2023-09-18T11:09:22;2.90;;;1.40;;
35380;SDS011;21486;51.916;8.378;2023-09-18T11:11:53;2.75;;;1.58;;
35380;SDS011;21486;51.916;8.378;2023-09-18T11:14:23;4.53;;;1.33;;
35380;SDS011;21486;51.916;8.378;2023-09-18T11:17:05;6.18;;;1.30;;
35380;SDS011;21486;51.916;8.378;2023-09-18T11:19:31;5.47;;;1.40;;
35380;SDS011;21486;51.916;8.378;2023-09-18T11:22:09;5.20;;;1.48;;
35380;SDS011;21486;51.916;8.378;2023-09-18T11:24:35;4.38;;;1.50;;
35380;SDS011;21486;51.916;8.378;2023-09-18T11:27:01;9.37;;;1.40;;
35380;SDS011;21486;51.916;8.378;2023-09-18T11:29:26;3.97;;;1.25;;
35380;SDS011;21486;51.916;8.378;2023-09-18T11:31:54;3.03;;;1.20;;
35380;SDS011;21486;51.916;8.378;2023-09-18T11:36:58;3.83;;;1.10;;
35380;SDS011;21486;51.916;8.378;2023-09-18T11:39:34;1.92;;;0.85;;
35380;SDS011;21486;51.916;8.378;2023-09-18T11:42:09;4.32;;;1.75;;
35380;SDS011;21486;51.916;8.378;2023-09-18T11:44:47;4.78;;;1.77;;
35380;SDS011;21486;51.916;8.378;2023-09-18T11:47:15;2.90;;;1.20;;
35380;SDS011;21486;51.916;8.378;2023-09-18T11:52:39;2.45;;;1.38;;
35380;SDS011;21486;51.916;8.378;2023-09-18T11:55:08;4.00;;;1.30;;
35380;SDS011;21486;51.916;8.378;2023-09-18T11:58:00;6.45;;;1.20;;
35380;SDS011;21486;51.916;8.378;2023-09-18T12:00:29;4.55;;;0.80;;
35380;SDS011;21486;51.916;8.378;2023-09-18T12:02:55;2.33;;;1.02;;
35380;SDS011;21486;51.916;8.378;2023-09-18T12:07:51;4.88;;;0.93;;
35380;SDS011;21486;51.916;8.378;2023-09-18T12:10:17;2.38;;;0.82;;
35380;SDS011;21486;51.916;8.378;2023-09-18T12:12:46;6.35;;;1.33;;
35380;SDS011;21486;51.916;8.378;2023-09-18T12:15:12;4.72;;;2.15;;
35380;SDS011;21486;51.916;8.378;2023-09-18T12:17:40;3.00;;;1.02;;
35380;SDS011;21486;51.916;8.378;2023-09-18T12:20:06;5.90;;;1.08;;
35380;SDS011;21486;51.916;8.378;2023-09-18T12:22:32;2.90;;;0.88;;
35380;SDS011;21486;51.916;8.378;2023-09-18T12:25:13;4.22;;;0.88;;
35380;SDS011;21486;51.916;8.378;2023-09-18T12:27:40;2.38;;;1.00;;
35380;SDS011;21486;51.916;8.378;2023-09-18T12:30:06;3.38;;;1.00;;
35380;SDS011;21486;51.916;8.378;2023-09-18T12:32:35;5.13;;;1.20;;
35380;SDS011;21486;51.916;8.378;2023-09-18T12:35:02;2.03;;;1.05;;
35380;SDS011;21486;51.916;8.378;2023-09-18T12:42:22;5.75;;;1.10;;
35380;SDS011;21486;51.916;8.378;2023-09-18T12:44:48;4.43;;;2.15;;
35380;SDS011;21486;51.916;8.378;2023-09-18T12:47:15;1.83;;;1.20;;
35380;SDS011;21486;51.916;8.378;2023-09-18T12:49:41;1.50;;;0.65;;
35380;SDS011;21486;51.916;8.378;2023-09-18T12:52:07;6.85;;;0.93;;
35380;SDS011;21486;51.916;8.378;2023-09-18T12:54:36;3.22;;;0.95;;
35380;SDS011;21486;51.916;8.378;2023-09-18T12:57:04;10.75;;;1.95;;
35380;SDS011;21486;51.916;8.378;2023-09-18T12:59:31;3.15;;;1.00;;
35380;SDS011;21486;51.916;8.378;2023-09-18T13:01:58;1.67;;;0.82;;
35380;SDS011;21486;51.916;8.378;2023-09-18T13:04:23;20.40;;;2.78;;
35380;SDS011;21486;51.916;8.378;2023-09-18T13:10:01;8.73;;;1.60;;
35380;SDS011;21486;51.916;8.378;2023-09-18T13:15:23;2.90;;;1.08;;
35380;SDS011;21486;51.916;8.378;2023-09-18T13:17:53;6.13;;;1.08;;
35380;SDS011;21486;51.916;8.378;2023-09-18T13:20:22;3.33;;;0.98;;
35380;SDS011;21486;51.916;8.378;2023-09-18T13:22:51;2.85;;;0.95;;
35380;SDS011;21486;51.916;8.378;2023-09-18T13:25:25;1.92;;;1.10;;
35380;SDS011;21486;51.916;8.378;2023-09-18T13:27:54;8.05;;;0.95;;
35380;SDS011;21486;51.916;8.378;2023-09-18T13:30:20;3.95;;;1.08;;
35380;SDS011;21486;51.916;8.378;2023-09-18T13:32:47;3.97;;;1.73;;
35380;SDS011;21486;51.916;8.378;2023-09-18T13:35:14;4.18;;;1.20;;
35380;SDS011;21486;51.916;8.378;2023-09-18T13:37:41;2.15;;;1.33;;
35380;SDS011;21486;51.916;8.378;2023-09-18T13:40:07;2.38;;;1.17;;
35380;SDS011;21486;51.916;8.378;2023-09-18T13:42:34;1.73;;;1.08;;
35380;SDS011;21486;51.916;8.378;2023-09-18T13:45:00;3.33;;;1.10;;
35380;SDS011;21486;51.916;8.378;2023-09-18T13:47:27;6.18;;;1.13;;
35380;SDS011;21486;51.916;8.378;2023-09-18T13:49:54;4.13;;;1.00;;
35380;SDS011;21486;51.916;8.378;2023-09-18T13:52:24;2.90;;;1.10;;
35380;SDS011;21486;51.916;8.378;2023-09-18T15:37:51;4.38;;;1.58;;
35380;SDS011;21486;51.916;8.378;2023-09-18T15:40:18;6.30;;;1.63;;
35380;SDS011;21486;51.916;8.378;2023-09-18T15:42:46;3.35;;;1.63;;
35380;SDS011;21486;51.916;8.378;2023-09-18T15:45:13;1.52;;;1.35;;
35380;SDS011;21486;51.916;8.378;2023-09-18T15:47:42;2.92;;;1.63;;
35380;SDS011;21486;51.916;8.378;2023-09-18T15:50:08;3.00;;;1.70;;
35380;SDS011;21486;51.916;8.378;2023-09-18T15:52:35;3.83;;;1.58;;
35380;SDS011;21486;51.916;8.378;2023-09-18T15:55:02;3.42;;;1.55;;
35380;SDS011;21486;51.916;8.378;2023-09-18T15:57:32;4.22;;;1.83;;
35380;SDS011;21486;51.916;8.378;2023-09-18T15:59:59;3.55;;;1.40;;
35380;SDS011;21486;51.916;8.378;2023-09-18T16:02:25;2.55;;;1.42;;
35380;SDS011;21486;51.916;8.378;2023-09-18T16:04:51;4.50;;;1.70;;
35380;SDS011;21486;51.916;8.378;2023-09-18T16:07:21;2.17;;;1.27;;
35380;SDS011;21486;51.916;8.378;2023-09-18T16:09:53;3.53;;;1.60;;
35380;SDS011;21486;51.916;8.378;2023-09-18T16:12:20;2.70;;;1.67;;
35380;SDS011;21486;51.916;8.378;2023-09-18T16:14:45;4.65;;;1.58;;
35380;SDS011;21486;51.916;8.378;2023-09-18T16:17:11;8.57;;;2.08;;
35380;SDS011;21486;51.916;8.378;2023-09-18T16:19:37;5.18;;;1.50;;
35380;SDS011;21486;51.916;8.378;2023-09-18T16:22:03;2.28;;;1.40;;
35380;SDS011;21486;51.916;8.378;2023-09-18T16:24:32;3.90;;;1.80;;
35380;SDS011;21486;51.916;8.378;2023-09-18T16:26:57;4.15;;;1.45;;
35380;SDS011;21486;51.916;8.378;2023-09-18T16:29:23;2.53;;;1.13;;
35380;SDS011;21486;51.916;8.378;2023-09-18T16:31:50;4.05;;;1.50;;
35380;SDS011;21486;51.916;8.378;2023-09-18T16:34:15;3.65;;;1.58;;
35380;SDS011;21486;51.916;8.378;2023-09-18T16:36:41;4.32;;;1.45;;
35380;SDS011;21486;51.916;8.378;2023-09-18T16:39:07;2.47;;;1.27;;
35380;SDS011;21486;51.916;8.378;2023-09-18T16:41:32;3.78;;;1.27;;
35380;SDS011;21486;51.916;8.378;2023-09-18T16:43:58;5.75;;;1.50;;
35380;SDS011;21486;51.916;8.378;2023-09-18T16:46:24;2.20;;;1.55;;
35380;SDS011;21486;51.916;8.378;2023-09-18T16:48:49;3.85;;;1.55;;
35380;SDS011;21486;51.916;8.378;2023-09-18T16:51:15;2.95;;;1.30;;
35380;SDS011;21486;51.916;8.378;2023-09-18T16:53:41;3.70;;;1.40;;
35380;SDS011;21486;51.916;8.378;2023-09-18T16:56:07;5.13;;;1.73;;
35380;SDS011;21486;51.916;8.378;2023-09-18T16:58:32;3.60;;;1.60;;
35380;SDS011;21486;51.916;8.378;2023-09-18T17:00:58;1.95;;;1.33;;
35380;SDS011;21486;51.916;8.378;2023-09-18T17:03:24;3.05;;;1.10;;
35380;SDS011;21486;51.916;8.378;2023-09-18T17:05:50;2.92;;;1.40;;
35380;SDS011;21486;51.916;8.378;2023-09-18T17:08:15;4.68;;;1.92;;
35380;SDS011;21486;51.916;8.378;2023-09-18T17:10:41;2.30;;;1.50;;
35380;SDS011;21486;51.916;8.378;2023-09-18T17:13:08;3.70;;;1.25;;
35380;SDS011;21486;51.916;8.378;2023-09-18T17:15:34;3.38;;;1.77;;
35380;SDS011;21486;51.916;8.378;2023-09-18T17:18:00;4.20;;;1.67;;
35380;SDS011;21486;51.916;8.378;2023-09-18T17:20:29;5.20;;;1.65;;
35380;SDS011;21486;51.916;8.378;2023-09-18T17:22:55;5.55;;;1.52;;
35380;SDS011;21486;51.916;8.378;2023-09-18T17:25:21;2.72;;;1.48;;
35380;SDS011;21486;51.916;8.378;2023-09-18T17:27:47;1.90;;;1.67;;
35380;SDS011;21486;51.916;8.378;2023-09-18T17:30:13;2.50;;;1.45;;
35380;SDS011;21486;51.916;8.378;2023-09-18T17:32:40;6.40;;;1.83;;